sensor_id;sensor_type;location;lat;lon;timestamp;P1;durP1;ratioP1;P2;durP2;ratioP2
26082;SDS011;13848;49.018;12.078;2024-01-06T00:00:00;15.70;;;9.77;;
26082;SDS011;13848;49.018;12.078;2024-01-06T00:02:26;17.33;;;10.18;;
26082;SDS011;13848;49.018;12.078;2024-01-06T00:04:52;22.33;;;11.55;;
26082;SDS011;13848;49.018;12.078;2024-01-06T00:07:17;19.58;;;11.13;;
26082;SDS011;13848;49.018;12.078;2024-01-06T00:09:43;30.13;;;14.60;;
26082;SDS011;13848;49.018;12.078;2024-01-06T00:12:11;17.80;;;10.52;;
26082;SDS011;13848;49.018;12.078;2024-01-06T00:14:37;17.25;;;10.07;;
26082;SDS011;13848;49.018;12.078;2024-01-06T00:17:03;16.48;;;9.68;;
26082;SDS011;13848;49.018;12.078;2024-01-06T00:19:29;24.33;;;12.40;;
26082;SDS011;13848;49.018;12.078;2024-01-06T00:21:55;22.40;;;12.32;;
26082;SDS011;13848;49.018;12.078;2024-01-06T00:24:21;22.38;;;12.55;;
26082;SDS011;13848;49.018;12.078;2024-01-06T00:26:46;22.35;;;13.30;;
26082;SDS011;13848;49.018;12.078;2024-01-06T00:29:14;19.95;;;10.82;;
26082;SDS011;13848;49.018;12.078;2024-01-06T00:31:40;17.42;;;10.80;;
26082;SDS011;13848;49.018;12.078;2024-01-06T00:34:06;17.60;;;10.43;;
26082;SDS011;13848;49.018;12.078;2024-01-06T00:36:31;14.88;;;9.43;;
26082;SDS011;13848;49.018;12.078;2024-01-06T00:38:57;14.30;;;9.93;;
26082;SDS011;13848;49.018;12.078;2024-01-06T00:41:23;16.45;;;10.23;;
26082;SDS011;13848;49.018;12.078;2024-01-06T00:43:49;16.90;;;9.50;;
26082;SDS011;13848;49.018;12.078;2024-01-06T00:46:16;16.65;;;9.73;;
26082;SDS011;13848;49.018;12.078;2024-01-06T00:48:43;21.13;;;10.05;;
26082;SDS011;13848;49.018;12.078;2024-01-06T00:51:09;14.75;;;10.25;;
26082;SDS011;13848;49.018;12.078;2024-01-06T00:53:35;16.25;;;10.13;;
26082;SDS011;13848;49.018;12.078;2024-01-06T00:56:01;15.07;;;9.77;;
26082;SDS011;13848;49.018;12.078;2024-01-06T00:58:27;13.18;;;8.82;;
26082;SDS011;13848;49.018;12.078;2024-01-06T01:00:53;13.40;;;9.73;;
26082;SDS011;13848;49.018;12.078;2024-01-06T01:03:20;14.25;;;8.93;;
26082;SDS011;13848;49.018;12.078;2024-01-06T01:05:46;13.90;;;9.93;;
26082;SDS011;13848;49.018;12.078;2024-01-06T01:08:12;14.82;;;9.63;;
26082;SDS011;13848;49.018;12.078;2024-01-06T01:10:38;17.67;;;9.68;;
26082;SDS011;13848;49.018;12.078;2024-01-06T01:13:04;15.18;;;9.90;;
26082;SDS011;13848;49.018;12.078;2024-01-06T01:15:29;13.82;;;9.25;;
26082;SDS011;13848;49.018;12.078;2024-01-06T01:17:55;17.98;;;9.82;;
26082;SDS011;13848;49.018;12.078;2024-01-06T01:20:23;13.63;;;9.48;;
26082;SDS011;13848;49.018;12.078;2024-01-06T01:22:49;14.13;;;9.85;;
26082;SDS011;13848;49.018;12.078;2024-01-06T01:25:15;16.40;;;10.20;;
26082;SDS011;13848;49.018;12.078;2024-01-06T01:27:41;15.43;;;10.20;;
26082;SDS011;13848;49.018;12.078;2024-01-06T01:30:07;17.55;;;9.98;;
26082;SDS011;13848;49.018;12.078;2024-01-06T01:32:33;15.10;;;9.43;;
26082;SDS011;13848;49.018;12.078;2024-01-06T01:34:59;14.25;;;9.75;;
26082;SDS011;13848;49.018;12.078;2024-01-06T01:37:27;17.92;;;10.68;;
26082;SDS011;13848;49.018;12.078;2024-01-06T01:39:52;17.60;;;10.10;;
26082;SDS011;13848;49.018;12.078;2024-01-06T01:42:18;16.30;;;10.45;;
26082;SDS011;13848;49.018;12.078;2024-01-06T01:44:44;17.42;;;10.30;;
26082;SDS011;13848;49.018;12.078;2024-01-06T01:47:10;14.70;;;10.20;;
26082;SDS011;13848;49.018;12.078;2024-01-06T01:49:37;13.68;;;9.50;;
26082;SDS011;13848;49.018;12.078;2024-01-06T01:52:03;16.27;;;10.30;;
26082;SDS011;13848;49.018;12.078;2024-01-06T01:54:31;17.85;;;10.40;;
26082;SDS011;13848;49.018;12.078;2024-01-06T01:56:57;16.33;;;10.57;;
26082;SDS011;13848;49.018;12.078;2024-01-06T01:59:23;17.45;;;10.27;;
26082;SDS011;13848;49.018;12.078;2024-01-06T02:01:49;15.93;;;10.77;;
26082;SDS011;13848;49.018;12.078;2024-01-06T02:04:15;13.70;;;10.15;;
26082;SDS011;13848;49.018;12.078;2024-01-06T02:06:41;19.40;;;10.82;;
26082;SDS011;13848;49.018;12.078;2024-01-06T02:09:07;15.40;;;10.38;;
26082;SDS011;13848;49.018;12.078;2024-01-06T02:11:34;18.55;;;10.82;;
26082;SDS011;13848;49.018;12.078;2024-01-06T02:14:00;16.05;;;10.20;;
26082;SDS011;13848;49.018;12.078;2024-01-06T02:16:26;14.95;;;10.32;;
26082;SDS011;13848;49.018;12.078;2024-01-06T02:18:52;15.93;;;10.43;;
26082;SDS011;13848;49.018;12.078;2024-01-06T02:21:18;16.42;;;10.20;;
26082;SDS011;13848;49.018;12.078;2024-01-06T02:23:48;18.77;;;10.02;;
26082;SDS011;13848;49.018;12.078;2024-01-06T02:26:14;21.13;;;11.32;;
26082;SDS011;13848;49.018;12.078;2024-01-06T02:28:40;15.45;;;10.55;;
26082;SDS011;13848;49.018;12.078;2024-01-06T02:31:06;20.90;;;10.57;;
26082;SDS011;13848;49.018;12.078;2024-01-06T02:33:32;18.38;;;10.25;;
26082;SDS011;13848;49.018;12.078;2024-01-06T02:35:58;16.17;;;10.77;;
26082;SDS011;13848;49.018;12.078;2024-01-06T02:38:24;15.60;;;10.35;;
26082;SDS011;13848;49.018;12.078;2024-01-06T02:40:51;14.57;;;10.60;;
26082;SDS011;13848;49.018;12.078;2024-01-06T02:43:17;16.05;;;10.38;;
26082;SDS011;13848;49.018;12.078;2024-01-06T02:45:43;14.65;;;9.70;;
26082;SDS011;13848;49.018;12.078;2024-01-06T02:48:09;16.75;;;10.70;;
26082;SDS011;13848;49.018;12.078;2024-01-06T02:50:35;18.13;;;10.90;;
26082;SDS011;13848;49.018;12.078;2024-01-06T02:53:00;18.70;;;11.52;;
26082;SDS011;13848;49.018;12.078;2024-01-06T02:55:26;17.52;;;10.55;;
26082;SDS011;13848;49.018;12.078;2024-01-06T02:57:54;15.05;;;9.98;;
26082;SDS011;13848;49.018;12.078;2024-01-06T03:00:20;17.20;;;10.98;;
26082;SDS011;13848;49.018;12.078;2024-01-06T03:02:46;16.27;;;10.35;;
26082;SDS011;13848;49.018;12.078;2024-01-06T03:05:12;16.63;;;10.27;;
26082;SDS011;13848;49.018;12.078;2024-01-06T03:07:38;18.35;;;10.27;;
26082;SDS011;13848;49.018;12.078;2024-01-06T03:10:04;16.40;;;10.25;;
26082;SDS011;13848;49.018;12.078;2024-01-06T03:12:30;19.75;;;10.27;;
26082;SDS011;13848;49.018;12.078;2024-01-06T03:14:58;17.77;;;11.20;;
26082;SDS011;13848;49.018;12.078;2024-01-06T03:17:24;16.85;;;10.18;;
26082;SDS011;13848;49.018;12.078;2024-01-06T03:19:50;21.88;;;10.18;;
26082;SDS011;13848;49.018;12.078;2024-01-06T03:22:15;16.90;;;9.98;;
26082;SDS011;13848;49.018;12.078;2024-01-06T03:24:41;14.65;;;9.60;;
26082;SDS011;13848;49.018;12.078;2024-01-06T03:27:07;15.80;;;9.68;;
26082;SDS011;13848;49.018;12.078;2024-01-06T03:29:33;19.00;;;11.00;;
26082;SDS011;13848;49.018;12.078;2024-01-06T03:32:00;18.50;;;10.48;;
26082;SDS011;13848;49.018;12.078;2024-01-06T03:34:26;14.95;;;9.45;;
26082;SDS011;13848;49.018;12.078;2024-01-06T03:36:52;16.08;;;10.55;;
26082;SDS011;13848;49.018;12.078;2024-01-06T03:39:18;20.73;;;10.30;;
26082;SDS011;13848;49.018;12.078;2024-01-06T03:41:44;17.17;;;10.57;;
26082;SDS011;13848;49.018;12.078;2024-01-06T03:44:10;16.42;;;10.20;;
26082;SDS011;13848;49.018;12.078;2024-01-06T03:46:37;14.20;;;9.63;;
26082;SDS011;13848;49.018;12.078;2024-01-06T03:49:04;18.00;;;10.10;;
26082;SDS011;13848;49.018;12.078;2024-01-06T03:51:30;16.73;;;10.23;;
26082;SDS011;13848;49.018;12.078;2024-01-06T03:53:56;19.00;;;10.93;;
26082;SDS011;13848;49.018;12.078;2024-01-06T03:56:22;15.10;;;10.27;;
26082;SDS011;13848;49.018;12.078;2024-01-06T03:58:48;17.58;;;10.27;;
26082;SDS011;13848;49.018;12.078;2024-01-06T04:01:14;15.77;;;10.15;;
26082;SDS011;13848;49.018;12.078;2024-01-06T04:03:40;18.83;;;10.05;;
26082;SDS011;13848;49.018;12.078;2024-01-06T04:06:07;15.85;;;10.50;;
26082;SDS011;13848;49.018;12.078;2024-01-06T04:08:35;15.77;;;10.10;;
26082;SDS011;13848;49.018;12.078;2024-01-06T04:11:01;16.33;;;10.93;;
26082;SDS011;13848;49.018;12.078;2024-01-06T04:13:28;16.23;;;10.30;;
26082;SDS011;13848;49.018;12.078;2024-01-06T04:15:54;18.42;;;11.20;;
26082;SDS011;13848;49.018;12.078;2024-01-06T04:18:20;17.70;;;10.20;;
26082;SDS011;13848;49.018;12.078;2024-01-06T04:20:46;17.58;;;11.35;;
26082;SDS011;13848;49.018;12.078;2024-01-06T04:23:13;18.30;;;11.10;;
26082;SDS011;13848;49.018;12.078;2024-01-06T04:25:39;18.20;;;11.52;;
26082;SDS011;13848;49.018;12.078;2024-01-06T04:28:05;15.30;;;11.48;;
26082;SDS011;13848;49.018;12.078;2024-01-06T04:30:31;20.35;;;11.18;;
26082;SDS011;13848;49.018;12.078;2024-01-06T04:32:57;16.48;;;11.18;;
26082;SDS011;13848;49.018;12.078;2024-01-06T04:35:23;14.10;;;10.55;;
26082;SDS011;13848;49.018;12.078;2024-01-06T04:37:49;17.25;;;11.02;;
26082;SDS011;13848;49.018;12.078;2024-01-06T04:40:17;17.33;;;9.93;;
26082;SDS011;13848;49.018;12.078;2024-01-06T04:42:43;14.80;;;9.65;;
26082;SDS011;13848;49.018;12.078;2024-01-06T04:45:09;16.55;;;10.25;;
26082;SDS011;13848;49.018;12.078;2024-01-06T04:47:35;16.02;;;10.43;;
26082;SDS011;13848;49.018;12.078;2024-01-06T04:50:01;13.35;;;9.48;;
26082;SDS011;13848;49.018;12.078;2024-01-06T04:52:26;15.23;;;10.27;;
26082;SDS011;13848;49.018;12.078;2024-01-06T04:54:52;14.32;;;9.80;;
26082;SDS011;13848;49.018;12.078;2024-01-06T04:57:20;17.27;;;10.52;;
26082;SDS011;13848;49.018;12.078;2024-01-06T04:59:46;13.45;;;9.45;;
26082;SDS011;13848;49.018;12.078;2024-01-06T05:02:12;13.88;;;9.65;;
26082;SDS011;13848;49.018;12.078;2024-01-06T05:04:38;17.88;;;10.02;;
26082;SDS011;13848;49.018;12.078;2024-01-06T05:07:04;18.85;;;10.75;;
26082;SDS011;13848;49.018;12.078;2024-01-06T05:09:30;15.57;;;10.25;;
26082;SDS011;13848;49.018;12.078;2024-01-06T05:11:56;15.32;;;9.48;;
26082;SDS011;13848;49.018;12.078;2024-01-06T05:14:23;16.70;;;10.70;;
26082;SDS011;13848;49.018;12.078;2024-01-06T05:16:49;17.83;;;10.77;;
26082;SDS011;13848;49.018;12.078;2024-01-06T05:19:15;15.73;;;10.93;;
26082;SDS011;13848;49.018;12.078;2024-01-06T05:21:41;19.27;;;11.40;;
26082;SDS011;13848;49.018;12.078;2024-01-06T05:24:07;15.32;;;10.10;;
26082;SDS011;13848;49.018;12.078;2024-01-06T05:26:33;14.70;;;10.30;;
26082;SDS011;13848;49.018;12.078;2024-01-06T05:28:58;18.42;;;10.57;;
26082;SDS011;13848;49.018;12.078;2024-01-06T05:31:26;14.23;;;10.10;;
26082;SDS011;13848;49.018;12.078;2024-01-06T05:33:52;17.17;;;10.63;;
26082;SDS011;13848;49.018;12.078;2024-01-06T05:36:18;15.57;;;10.25;;
26082;SDS011;13848;49.018;12.078;2024-01-06T05:38:44;17.05;;;10.45;;
26082;SDS011;13848;49.018;12.078;2024-01-06T05:41:10;15.30;;;10.20;;
26082;SDS011;13848;49.018;12.078;2024-01-06T05:43:36;15.52;;;10.15;;
26082;SDS011;13848;49.018;12.078;2024-01-06T05:46:02;16.27;;;10.55;;
26082;SDS011;13848;49.018;12.078;2024-01-06T05:48:30;14.15;;;9.38;;
26082;SDS011;13848;49.018;12.078;2024-01-06T05:50:56;15.18;;;9.90;;
26082;SDS011;13848;49.018;12.078;2024-01-06T05:53:21;16.05;;;10.57;;
26082;SDS011;13848;49.018;12.078;2024-01-06T05:55:47;17.33;;;10.35;;
26082;SDS011;13848;49.018;12.078;2024-01-06T05:58:13;15.70;;;10.63;;
26082;SDS011;13848;49.018;12.078;2024-01-06T06:00:39;16.42;;;10.85;;
26082;SDS011;13848;49.018;12.078;2024-01-06T06:03:05;14.75;;;9.98;;
26082;SDS011;13848;49.018;12.078;2024-01-06T06:05:32;14.98;;;10.10;;
26082;SDS011;13848;49.018;12.078;2024-01-06T06:07:58;18.30;;;10.77;;
26082;SDS011;13848;49.018;12.078;2024-01-06T06:10:24;14.77;;;9.77;;
26082;SDS011;13848;49.018;12.078;2024-01-06T06:12:50;17.08;;;10.52;;
26082;SDS011;13848;49.018;12.078;2024-01-06T06:15:16;18.02;;;9.45;;
26082;SDS011;13848;49.018;12.078;2024-01-06T06:17:42;15.63;;;9.85;;
26082;SDS011;13848;49.018;12.078;2024-01-06T06:20:08;16.73;;;9.88;;
26082;SDS011;13848;49.018;12.078;2024-01-06T06:22:36;15.55;;;10.02;;
26082;SDS011;13848;49.018;12.078;2024-01-06T06:25:02;15.93;;;10.32;;
26082;SDS011;13848;49.018;12.078;2024-01-06T06:27:28;17.88;;;9.60;;
26082;SDS011;13848;49.018;12.078;2024-01-06T06:29:55;15.38;;;10.57;;
26082;SDS011;13848;49.018;12.078;2024-01-06T06:32:21;14.32;;;9.77;;
26082;SDS011;13848;49.018;12.078;2024-01-06T06:34:47;15.75;;;10.07;;
26082;SDS011;13848;49.018;12.078;2024-01-06T06:37:13;15.80;;;9.95;;
26082;SDS011;13848;49.018;12.078;2024-01-06T06:39:40;14.27;;;9.73;;
26082;SDS011;13848;49.018;12.078;2024-01-06T06:42:06;13.60;;;9.32;;
26082;SDS011;13848;49.018;12.078;2024-01-06T06:44:32;17.67;;;9.98;;
26082;SDS011;13848;49.018;12.078;2024-01-06T06:46:58;18.27;;;10.10;;
26082;SDS011;13848;49.018;12.078;2024-01-06T06:49:23;15.07;;;9.57;;
26082;SDS011;13848;49.018;12.078;2024-01-06T06:51:49;15.32;;;10.00;;
26082;SDS011;13848;49.018;12.078;2024-01-06T06:54:15;15.23;;;9.60;;
26082;SDS011;13848;49.018;12.078;2024-01-06T06:56:43;15.57;;;9.68;;
26082;SDS011;13848;49.018;12.078;2024-01-06T06:59:09;16.52;;;9.73;;
26082;SDS011;13848;49.018;12.078;2024-01-06T07:01:35;17.10;;;9.55;;
26082;SDS011;13848;49.018;12.078;2024-01-06T07:04:01;15.75;;;9.45;;
26082;SDS011;13848;49.018;12.078;2024-01-06T07:06:27;13.82;;;9.73;;
26082;SDS011;13848;49.018;12.078;2024-01-06T07:08:53;15.57;;;9.10;;
26082;SDS011;13848;49.018;12.078;2024-01-06T07:11:19;12.80;;;9.18;;
26082;SDS011;13848;49.018;12.078;2024-01-06T07:13:47;14.65;;;9.20;;
26082;SDS011;13848;49.018;12.078;2024-01-06T07:16:13;13.32;;;8.82;;
26082;SDS011;13848;49.018;12.078;2024-01-06T07:18:39;14.77;;;9.27;;
26082;SDS011;13848;49.018;12.078;2024-01-06T07:21:05;15.02;;;9.40;;
26082;SDS011;13848;49.018;12.078;2024-01-06T07:23:31;17.38;;;10.07;;
26082;SDS011;13848;49.018;12.078;2024-01-06T07:25:57;14.20;;;9.27;;
26082;SDS011;13848;49.018;12.078;2024-01-06T07:28:23;15.55;;;9.43;;
26082;SDS011;13848;49.018;12.078;2024-01-06T07:30:51;15.10;;;8.80;;
26082;SDS011;13848;49.018;12.078;2024-01-06T07:33:17;13.98;;;7.70;;
26082;SDS011;13848;49.018;12.078;2024-01-06T07:35:43;15.80;;;8.30;;
26082;SDS011;13848;49.018;12.078;2024-01-06T07:38:09;14.48;;;8.02;;
26082;SDS011;13848;49.018;12.078;2024-01-06T07:40:35;11.27;;;7.80;;
26082;SDS011;13848;49.018;12.078;2024-01-06T07:43:00;15.77;;;8.35;;
26082;SDS011;13848;49.018;12.078;2024-01-06T07:45:26;12.48;;;8.02;;
26082;SDS011;13848;49.018;12.078;2024-01-06T07:47:54;14.75;;;7.82;;
26082;SDS011;13848;49.018;12.078;2024-01-06T07:50:20;11.20;;;7.65;;
26082;SDS011;13848;49.018;12.078;2024-01-06T07:52:45;12.65;;;8.18;;
26082;SDS011;13848;49.018;12.078;2024-01-06T07:55:12;12.70;;;7.70;;
26082;SDS011;13848;49.018;12.078;2024-01-06T07:57:38;14.35;;;8.10;;
26082;SDS011;13848;49.018;12.078;2024-01-06T08:00:04;13.23;;;7.82;;
26082;SDS011;13848;49.018;12.078;2024-01-06T08:02:31;11.52;;;7.40;;
26082;SDS011;13848;49.018;12.078;2024-01-06T08:04:58;11.82;;;7.60;;
26082;SDS011;13848;49.018;12.078;2024-01-06T08:07:24;10.13;;;7.25;;
26082;SDS011;13848;49.018;12.078;2024-01-06T08:09:50;16.95;;;8.65;;
26082;SDS011;13848;49.018;12.078;2024-01-06T08:12:16;15.63;;;8.07;;
26082;SDS011;13848;49.018;12.078;2024-01-06T08:14:42;11.77;;;8.00;;
26082;SDS011;13848;49.018;12.078;2024-01-06T08:17:08;13.35;;;7.90;;
26082;SDS011;13848;49.018;12.078;2024-01-06T08:19:34;14.98;;;7.82;;
26082;SDS011;13848;49.018;12.078;2024-01-06T08:22:01;16.05;;;8.10;;
26082;SDS011;13848;49.018;12.078;2024-01-06T08:24:27;13.75;;;7.82;;
26082;SDS011;13848;49.018;12.078;2024-01-06T08:26:53;13.43;;;7.47;;
26082;SDS011;13848;49.018;12.078;2024-01-06T08:29:19;12.75;;;7.55;;
26082;SDS011;13848;49.018;12.078;2024-01-06T08:31:45;11.00;;;7.80;;
26082;SDS011;13848;49.018;12.078;2024-01-06T08:34:11;16.15;;;7.97;;
26082;SDS011;13848;49.018;12.078;2024-01-06T08:36:37;13.70;;;8.00;;
26082;SDS011;13848;49.018;12.078;2024-01-06T08:39:05;11.00;;;7.43;;
26082;SDS011;13848;49.018;12.078;2024-01-06T08:41:30;12.40;;;7.90;;
26082;SDS011;13848;49.018;12.078;2024-01-06T08:43:56;16.80;;;8.43;;
26082;SDS011;13848;49.018;12.078;2024-01-06T08:46:22;15.75;;;9.52;;
26082;SDS011;13848;49.018;12.078;2024-01-06T08:48:48;14.38;;;8.77;;
26082;SDS011;13848;49.018;12.078;2024-01-06T08:51:14;14.57;;;8.55;;
26082;SDS011;13848;49.018;12.078;2024-01-06T08:53:40;15.02;;;8.95;;
26082;SDS011;13848;49.018;12.078;2024-01-06T08:56:08;17.50;;;9.35;;
26082;SDS011;13848;49.018;12.078;2024-01-06T08:58:34;15.73;;;9.40;;
26082;SDS011;13848;49.018;12.078;2024-01-06T09:01:00;15.95;;;10.52;;
26082;SDS011;13848;49.018;12.078;2024-01-06T09:03:26;17.58;;;10.10;;
26082;SDS011;13848;49.018;12.078;2024-01-06T09:05:52;16.00;;;9.43;;
26082;SDS011;13848;49.018;12.078;2024-01-06T09:08:18;15.00;;;8.90;;
26082;SDS011;13848;49.018;12.078;2024-01-06T09:10:44;15.25;;;6.55;;
26082;SDS011;13848;49.018;12.078;2024-01-06T09:13:11;13.07;;;6.82;;
26082;SDS011;13848;49.018;12.078;2024-01-06T09:15:37;10.68;;;5.88;;
26082;SDS011;13848;49.018;12.078;2024-01-06T09:18:03;13.85;;;5.85;;
26082;SDS011;13848;49.018;12.078;2024-01-06T09:20:30;10.23;;;5.95;;
26082;SDS011;13848;49.018;12.078;2024-01-06T09:22:56;10.38;;;6.00;;
26082;SDS011;13848;49.018;12.078;2024-01-06T09:25:21;10.10;;;4.93;;
26082;SDS011;13848;49.018;12.078;2024-01-06T09:27:47;15.93;;;5.85;;
26082;SDS011;13848;49.018;12.078;2024-01-06T09:30:15;9.07;;;5.50;;
26082;SDS011;13848;49.018;12.078;2024-01-06T09:32:41;9.88;;;5.20;;
26082;SDS011;13848;49.018;12.078;2024-01-06T09:35:07;12.85;;;6.20;;
26082;SDS011;13848;49.018;12.078;2024-01-06T09:37:33;29.98;;;13.60;;
26082;SDS011;13848;49.018;12.078;2024-01-06T09:39:59;26.40;;;12.02;;
26082;SDS011;13848;49.018;12.078;2024-01-06T09:42:25;17.73;;;8.63;;
26082;SDS011;13848;49.018;12.078;2024-01-06T09:44:51;11.23;;;7.28;;
26082;SDS011;13848;49.018;12.078;2024-01-06T09:47:18;14.55;;;7.85;;
26082;SDS011;13848;49.018;12.078;2024-01-06T09:49:48;10.23;;;5.50;;
26082;SDS011;13848;49.018;12.078;2024-01-06T09:52:15;8.98;;;5.10;;
26082;SDS011;13848;49.018;12.078;2024-01-06T09:54:46;12.23;;;4.90;;
26082;SDS011;13848;49.018;12.078;2024-01-06T09:57:17;10.10;;;5.15;;
26082;SDS011;13848;49.018;12.078;2024-01-06T09:59:43;7.10;;;4.47;;
26082;SDS011;13848;49.018;12.078;2024-01-06T10:02:09;9.80;;;4.88;;
26082;SDS011;13848;49.018;12.078;2024-01-06T10:04:41;8.32;;;5.05;;
26082;SDS011;13848;49.018;12.078;2024-01-06T10:07:06;6.45;;;4.25;;
26082;SDS011;13848;49.018;12.078;2024-01-06T10:09:32;9.52;;;4.18;;
26082;SDS011;13848;49.018;12.078;2024-01-06T10:11:58;6.85;;;4.35;;
26082;SDS011;13848;49.018;12.078;2024-01-06T10:14:24;5.63;;;3.70;;
26082;SDS011;13848;49.018;12.078;2024-01-06T10:16:51;7.38;;;3.95;;
26082;SDS011;13848;49.018;12.078;2024-01-06T10:19:17;9.02;;;4.28;;
26082;SDS011;13848;49.018;12.078;2024-01-06T10:21:45;12.68;;;4.60;;
26082;SDS011;13848;49.018;12.078;2024-01-06T10:24:11;6.18;;;3.80;;
26082;SDS011;13848;49.018;12.078;2024-01-06T10:26:37;7.47;;;4.00;;
26082;SDS011;13848;49.018;12.078;2024-01-06T10:29:03;9.40;;;3.90;;
26082;SDS011;13848;49.018;12.078;2024-01-06T10:31:29;7.60;;;4.05;;
26082;SDS011;13848;49.018;12.078;2024-01-06T10:33:55;9.68;;;4.38;;
26082;SDS011;13848;49.018;12.078;2024-01-06T10:36:21;8.25;;;4.97;;
26082;SDS011;13848;49.018;12.078;2024-01-06T10:38:49;10.75;;;4.20;;
26082;SDS011;13848;49.018;12.078;2024-01-06T10:41:16;7.40;;;3.35;;
26082;SDS011;13848;49.018;12.078;2024-01-06T10:43:42;7.35;;;4.25;;
26082;SDS011;13848;49.018;12.078;2024-01-06T10:46:09;10.93;;;4.70;;
26082;SDS011;13848;49.018;12.078;2024-01-06T10:48:36;7.78;;;3.63;;
26082;SDS011;13848;49.018;12.078;2024-01-06T10:51:03;6.03;;;4.18;;
26082;SDS011;13848;49.018;12.078;2024-01-06T10:53:29;6.82;;;3.70;;
26082;SDS011;13848;49.018;12.078;2024-01-06T10:55:58;6.80;;;3.42;;
26082;SDS011;13848;49.018;12.078;2024-01-06T10:58:26;7.47;;;3.42;;
26082;SDS011;13848;49.018;12.078;2024-01-06T11:00:55;5.90;;;3.33;;
26082;SDS011;13848;49.018;12.078;2024-01-06T11:03:21;7.93;;;3.83;;
26082;SDS011;13848;49.018;12.078;2024-01-06T11:05:48;8.90;;;3.97;;
26082;SDS011;13848;49.018;12.078;2024-01-06T11:08:14;7.50;;;3.83;;
26082;SDS011;13848;49.018;12.078;2024-01-06T11:10:42;12.48;;;4.30;;
26082;SDS011;13848;49.018;12.078;2024-01-06T11:13:11;6.03;;;3.75;;
26082;SDS011;13848;49.018;12.078;2024-01-06T11:15:38;9.18;;;4.10;;
26082;SDS011;13848;49.018;12.078;2024-01-06T11:18:05;5.10;;;3.20;;
26082;SDS011;13848;49.018;12.078;2024-01-06T11:20:31;7.28;;;4.43;;
26082;SDS011;13848;49.018;12.078;2024-01-06T11:22:57;8.00;;;3.20;;
26082;SDS011;13848;49.018;12.078;2024-01-06T11:25:43;5.82;;;3.63;;
26082;SDS011;13848;49.018;12.078;2024-01-06T11:28:10;9.48;;;3.25;;
26082;SDS011;13848;49.018;12.078;2024-01-06T11:30:36;5.65;;;2.78;;
26082;SDS011;13848;49.018;12.078;2024-01-06T11:33:02;8.10;;;3.17;;
26082;SDS011;13848;49.018;12.078;2024-01-06T11:35:30;8.00;;;3.03;;
26082;SDS011;13848;49.018;12.078;2024-01-06T11:37:56;6.18;;;2.90;;
26082;SDS011;13848;49.018;12.078;2024-01-06T11:40:30;8.93;;;3.22;;
26082;SDS011;13848;49.018;12.078;2024-01-06T11:43:07;9.57;;;3.03;;
26082;SDS011;13848;49.018;12.078;2024-01-06T11:45:36;4.95;;;2.80;;
26082;SDS011;13848;49.018;12.078;2024-01-06T11:48:04;8.60;;;3.13;;
26082;SDS011;13848;49.018;12.078;2024-01-06T11:50:31;5.32;;;2.88;;
26082;SDS011;13848;49.018;12.078;2024-01-06T11:52:58;8.15;;;3.15;;
26082;SDS011;13848;49.018;12.078;2024-01-06T11:55:24;7.47;;;3.03;;
26082;SDS011;13848;49.018;12.078;2024-01-06T11:57:51;5.40;;;2.85;;
26082;SDS011;13848;49.018;12.078;2024-01-06T12:00:17;6.78;;;3.22;;
26082;SDS011;13848;49.018;12.078;2024-01-06T12:02:45;6.95;;;3.33;;
26082;SDS011;13848;49.018;12.078;2024-01-06T12:05:14;7.75;;;3.17;;
26082;SDS011;13848;49.018;12.078;2024-01-06T12:07:41;7.18;;;3.30;;
26082;SDS011;13848;49.018;12.078;2024-01-06T12:10:07;12.63;;;3.85;;
26082;SDS011;13848;49.018;12.078;2024-01-06T12:12:34;11.40;;;3.40;;
26082;SDS011;13848;49.018;12.078;2024-01-06T12:15:00;10.20;;;3.67;;
26082;SDS011;13848;49.018;12.078;2024-01-06T12:17:27;4.30;;;2.92;;
26082;SDS011;13848;49.018;12.078;2024-01-06T12:19:56;8.18;;;3.47;;
26082;SDS011;13848;49.018;12.078;2024-01-06T12:22:22;6.40;;;3.38;;
26082;SDS011;13848;49.018;12.078;2024-01-06T12:24:49;6.15;;;3.65;;
26082;SDS011;13848;49.018;12.078;2024-01-06T12:27:16;8.27;;;3.75;;
26082;SDS011;13848;49.018;12.078;2024-01-06T12:29:42;9.93;;;3.72;;
26082;SDS011;13848;49.018;12.078;2024-01-06T12:32:09;15.15;;;7.90;;
26082;SDS011;13848;49.018;12.078;2024-01-06T12:34:35;11.43;;;6.20;;
26082;SDS011;13848;49.018;12.078;2024-01-06T12:37:03;9.43;;;4.90;;
26082;SDS011;13848;49.018;12.078;2024-01-06T12:39:29;12.07;;;4.80;;
26082;SDS011;13848;49.018;12.078;2024-01-06T12:41:56;9.15;;;4.35;;
26082;SDS011;13848;49.018;12.078;2024-01-06T12:44:22;6.63;;;4.18;;
26082;SDS011;13848;49.018;12.078;2024-01-06T12:46:48;9.38;;;4.57;;
26082;SDS011;13848;49.018;12.078;2024-01-06T12:49:14;5.57;;;3.70;;
26082;SDS011;13848;49.018;12.078;2024-01-06T12:51:40;6.47;;;3.22;;
26082;SDS011;13848;49.018;12.078;2024-01-06T12:54:07;5.55;;;3.15;;
26082;SDS011;13848;49.018;12.078;2024-01-06T12:56:34;8.18;;;3.08;;
26082;SDS011;13848;49.018;12.078;2024-01-06T12:59:00;9.00;;;3.20;;
26082;SDS011;13848;49.018;12.078;2024-01-06T13:01:26;6.47;;;3.10;;
26082;SDS011;13848;49.018;12.078;2024-01-06T13:03:52;9.70;;;3.45;;
26082;SDS011;13848;49.018;12.078;2024-01-06T13:06:18;6.38;;;2.85;;
26082;SDS011;13848;49.018;12.078;2024-01-06T13:08:44;6.03;;;3.30;;
26082;SDS011;13848;49.018;12.078;2024-01-06T13:11:12;9.18;;;2.92;;
26082;SDS011;13848;49.018;12.078;2024-01-06T13:13:38;7.55;;;3.40;;
26082;SDS011;13848;49.018;12.078;2024-01-06T13:16:04;9.75;;;3.42;;
26082;SDS011;13848;49.018;12.078;2024-01-06T13:18:30;6.82;;;3.22;;
26082;SDS011;13848;49.018;12.078;2024-01-06T13:20:56;11.55;;;3.10;;
26082;SDS011;13848;49.018;12.078;2024-01-06T13:23:22;6.88;;;2.90;;
26082;SDS011;13848;49.018;12.078;2024-01-06T13:25:48;7.07;;;3.20;;
26082;SDS011;13848;49.018;12.078;2024-01-06T13:28:15;5.50;;;2.92;;
26082;SDS011;13848;49.018;12.078;2024-01-06T13:30:41;6.03;;;3.30;;
26082;SDS011;13848;49.018;12.078;2024-01-06T13:33:07;9.15;;;3.63;;
26082;SDS011;13848;49.018;12.078;2024-01-06T13:35:33;5.57;;;2.90;;
26082;SDS011;13848;49.018;12.078;2024-01-06T13:37:59;6.35;;;3.33;;
26082;SDS011;13848;49.018;12.078;2024-01-06T13:40:25;5.18;;;2.88;;
26082;SDS011;13848;49.018;12.078;2024-01-06T13:42:51;7.57;;;2.88;;
26082;SDS011;13848;49.018;12.078;2024-01-06T13:45:19;5.82;;;2.92;;
26082;SDS011;13848;49.018;12.078;2024-01-06T13:47:45;6.15;;;3.00;;
26082;SDS011;13848;49.018;12.078;2024-01-06T13:50:11;6.53;;;3.25;;
26082;SDS011;13848;49.018;12.078;2024-01-06T13:52:38;7.85;;;3.40;;
26082;SDS011;13848;49.018;12.078;2024-01-06T13:55:04;5.05;;;2.83;;
26082;SDS011;13848;49.018;12.078;2024-01-06T13:57:31;5.82;;;2.95;;
26082;SDS011;13848;49.018;12.078;2024-01-06T13:59:56;4.15;;;3.03;;
26082;SDS011;13848;49.018;12.078;2024-01-06T14:02:24;6.95;;;3.10;;
26082;SDS011;13848;49.018;12.078;2024-01-06T14:04:50;3.80;;;2.60;;
26082;SDS011;13848;49.018;12.078;2024-01-06T14:07:16;5.82;;;2.97;;
26082;SDS011;13848;49.018;12.078;2024-01-06T14:09:43;4.93;;;2.83;;
26082;SDS011;13848;49.018;12.078;2024-01-06T14:12:08;5.20;;;3.33;;
26082;SDS011;13848;49.018;12.078;2024-01-06T14:14:34;7.40;;;3.15;;